Time;durP1;ratioP1;P1;durP2;ratioP2;P2;SDS_P1;SDS_P2;PMS_P1;PMS_P2;Temp;Humidity;BMP_temperature;BMP_pressure;BME280_temperature;BME280_humidity;BME280_pressure;Samples;Min_cycle;Max_cycle;Signal;HPM_P1;HPM_P2
2022/06/22 00:01:16;;;;;;;3.75;2.92;;;;;;;;;;5031666;28;20551;-53
2022/06/22 00:03:43;;;;;;;4.13;3.17;;;;;;;;;;5031009;28;20584;-53
2022/06/22 00:06:35;;;;;;;5.95;3.00;;;;;;;;;;5032194;28;20478;-53
2022/06/22 00:09:01;;;;;;;3.83;2.47;;;;;;;;;;5029871;28;20102;-54
2022/06/22 00:11:27;;;;;;;4.93;2.67;;;;;;;;;;5029512;28;20069;-51
2022/06/22 00:13:56;;;;;;;4.18;2.33;;;;;;;;;;5030993;28;20100;-59
2022/06/22 00:16:30;;;;;;;6.63;3.13;;;;;;;;;;5031686;28;20032;-54
2022/06/22 00:18:57;;;;;;;5.38;2.53;;;;;;;;;;5031251;28;20065;-53
2022/06/22 00:21:29;;;;;;;10.70;2.20;;;;;;;;;;5031643;28;20021;-54
2022/06/22 00:23:57;;;;;;;6.03;3.08;;;;;;;;;;5031110;28;20036;-54
2022/06/22 00:26:23;;;;;;;4.22;2.97;;;;;;;;;;5031310;28;20028;-54
2022/06/22 00:29:04;;;;;;;2.97;2.58;;;;;;;;;;5027252;28;20037;-54
2022/06/22 00:31:38;;;;;;;4.13;2.40;;;;;;;;;;5026450;28;20029;-51
2022/06/22 00:34:06;;;;;;;3.65;2.38;;;;;;;;;;5031657;28;20033;-54
2022/06/22 00:36:35;;;;;;;3.88;2.88;;;;;;;;;;5031634;28;20029;-61
2022/06/22 00:39:13;;;;;;;2.72;2.30;;;;;;;;;;5031414;28;20029;-55
2022/06/22 00:41:40;;;;;;;5.60;2.45;;;;;;;;;;5030844;28;20033;-58
2022/06/22 00:44:07;;;;;;;4.32;2.10;;;;;;;;;;5031553;28;20022;-57
2022/06/22 00:46:34;;;;;;;3.85;2.53;;;;;;;;;;5029536;28;20057;-61
2022/06/22 00:49:07;;;;;;;4.63;2.50;;;;;;;;;;5035109;28;20041;-53
2022/06/22 00:51:37;;;;;;;4.57;2.67;;;;;;;;;;5035095;28;20498;-62
2022/06/22 00:54:10;;;;;;;4.20;2.60;;;;;;;;;;5035715;28;20049;-54
2022/06/22 00:56:55;;;;;;;5.25;2.35;;;;;;;;;;5034856;28;20021;-63
2022/06/22 00:59:31;;;;;;;4.70;2.58;;;;;;;;;;5035509;28;20462;-53
2022/06/22 01:02:04;;;;;;;3.45;2.45;;;;;;;;;;5034459;28;20036;-55
2022/06/22 01:04:49;;;;;;;4.68;2.85;;;;;;;;;;5034548;28;20459;-54
2022/06/22 01:07:17;;;;;;;3.70;2.95;;;;;;;;;;5035571;28;20051;-55
2022/06/22 01:09:46;;;;;;;4.15;3.15;;;;;;;;;;5034738;28;20030;-54
2022/06/22 01:12:25;;;;;;;4.05;2.78;;;;;;;;;;5035467;28;20030;-53
2022/06/22 01:14:57;;;;;;;6.65;3.45;;;;;;;;;;5027430;28;20033;-54
2022/06/22 01:17:28;;;;;;;3.28;2.63;;;;;;;;;;5034641;28;20030;-59
2022/06/22 01:20:24;;;;;;;4.38;3.00;;;;;;;;;;5026796;28;20018;-56
2022/06/22 01:22:50;;;;;;;5.22;2.83;;;;;;;;;;5011507;28;20125;-55
2022/06/22 01:25:16;;;;;;;3.47;3.03;;;;;;;;;;5029695;28;20109;-55
2022/06/22 01:27:42;;;;;;;4.80;3.10;;;;;;;;;;5033854;28;20478;-58
2022/06/22 01:30:44;;;;;;;4.68;2.97;;;;;;;;;;5034367;28;20051;-55
2022/06/22 01:33:29;;;;;;;3.60;2.55;;;;;;;;;;4993002;28;20046;-55
2022/06/22 01:35:59;;;;;;;3.40;2.92;;;;;;;;;;5030978;28;20128;-56
2022/06/22 01:38:30;;;;;;;4.15;2.90;;;;;;;;;;5033159;28;20482;-57
2022/06/22 01:41:02;;;;;;;4.40;2.45;;;;;;;;;;5034155;28;20033;-56
2022/06/22 01:43:35;;;;;;;3.58;3.00;;;;;;;;;;5034741;28;20072;-54
2022/06/22 01:46:04;;;;;;;3.75;2.88;;;;;;;;;;5034230;28;20030;-54
2022/06/22 01:48:35;;;;;;;7.28;2.83;;;;;;;;;;5031712;28;20101;-53
2022/06/22 01:51:05;;;;;;;5.15;3.10;;;;;;;;;;5033738;28;20529;-53
2022/06/22 01:53:53;;;;;;;3.63;2.55;;;;;;;;;;5034307;28;20026;-54
2022/06/22 01:56:23;;;;;;;5.57;3.15;;;;;;;;;;5034078;28;20044;-55
2022/06/22 01:58:54;;;;;;;6.30;2.72;;;;;;;;;;5033700;28;20071;-55
2022/06/22 02:01:24;;;;;;;4.30;3.28;;;;;;;;;;5034152;28;20425;-54
2022/06/22 02:03:59;;;;;;;4.78;3.50;;;;;;;;;;5033364;28;20369;-54
2022/06/22 02:09:25;;;;;;;4.45;2.95;;;;;;;;;;5034197;28;20068;-53
2022/06/22 02:12:18;;;;;;;4.85;3.10;;;;;;;;;;5033269;28;20101;-58
2022/06/22 02:14:41;;;;;;;4.00;3.17;;;;;;;;;;5033250;28;20037;-61
2022/06/22 02:17:08;;;;;;;3.83;3.03;;;;;;;;;;5033902;28;20037;-57
2022/06/22 02:19:36;;;;;;;3.72;2.85;;;;;;;;;;5033727;28;20026;-57
2022/06/22 02:22:02;;;;;;;5.22;2.78;;;;;;;;;;5033264;28;20056;-59
2022/06/22 02:24:30;;;;;;;4.82;2.95;;;;;;;;;;5025823;28;20026;-56
2022/06/22 02:27:04;;;;;;;3.83;2.75;;;;;;;;;;5032803;28;20501;-54
2022/06/22 02:29:50;;;;;;;4.28;3.17;;;;;;;;;;5032364;28;20124;-53
2022/06/22 02:32:18;;;;;;;5.88;3.60;;;;;;;;;;5030579;28;20029;-52
2022/06/22 02:34:48;;;;;;;3.90;3.22;;;;;;;;;;5025018;28;20513;-51
2022/06/22 02:37:14;;;;;;;5.72;3.40;;;;;;;;;;5033835;28;20056;-53
2022/06/22 02:39:47;;;;;;;5.07;3.35;;;;;;;;;;5033284;28;20045;-63
2022/06/22 02:44:58;;;;;;;5.22;3.40;;;;;;;;;;5032647;28;20513;-52
2022/06/22 02:47:32;;;;;;;3.40;2.95;;;;;;;;;;5026855;28;20073;-54
2022/06/22 02:50:17;;;;;;;4.35;3.20;;;;;;;;;;5032371;28;20056;-52
2022/06/22 02:53:05;;;;;;;5.75;2.97;;;;;;;;;;5032921;28;20029;-61
2022/06/22 02:55:33;;;;;;;5.75;3.55;;;;;;;;;;5033360;28;20025;-53
2022/06/22 02:58:02;;;;;;;4.38;3.05;;;;;;;;;;5032597;28;20030;-53
2022/06/22 03:00:33;;;;;;;4.55;3.65;;;;;;;;;;5033333;28;20013;-50
2022/06/22 03:03:01;;;;;;;4.28;3.45;;;;;;;;;;5032227;28;20475;-52
2022/06/22 03:05:27;;;;;;;7.65;3.67;;;;;;;;;;5032035;28;20025;-51
2022/06/22 03:07:54;;;;;;;3.83;3.25;;;;;;;;;;5032034;28;20064;-52
2022/06/22 03:10:36;;;;;;;5.35;3.60;;;;;;;;;;5032621;28;20371;-51
2022/06/22 03:13:02;;;;;;;4.53;3.08;;;;;;;;;;5031989;28;20030;-55
2022/06/22 03:15:31;;;;;;;4.32;3.30;;;;;;;;;;5033112;28;20091;-56
2022/06/22 03:17:58;;;;;;;5.90;3.47;;;;;;;;;;5031905;28;20025;-52
2022/06/22 03:20:26;;;;;;;5.30;3.83;;;;;;;;;;5032793;28;20021;-52
2022/06/22 03:22:54;;;;;;;5.43;3.42;;;;;;;;;;5032145;28;20029;-51
2022/06/22 03:25:39;;;;;;;5.57;3.83;;;;;;;;;;5029297;28;20382;-54
2022/06/22 03:28:08;;;;;;;5.40;3.88;;;;;;;;;;5023613;28;20132;-51
2022/06/22 03:30:41;;;;;;;4.57;3.45;;;;;;;;;;5032484;28;20049;-54
2022/06/22 03:33:10;;;;;;;3.67;3.28;;;;;;;;;;5032340;28;20040;-54
2022/06/22 03:35:41;;;;;;;5.38;3.60;;;;;;;;;;5032424;28;20034;-53
2022/06/22 03:38:17;;;;;;;4.85;3.78;;;;;;;;;;5031742;28;20041;-54
2022/06/22 03:41:12;;;;;;;4.55;3.33;;;;;;;;;;5031329;28;20072;-58
2022/06/22 03:43:42;;;;;;;4.25;3.33;;;;;;;;;;5020823;28;20047;-54
2022/06/22 03:46:29;;;;;;;5.97;3.88;;;;;;;;;;5031973;28;20033;-53
2022/06/22 03:48:58;;;;;;;4.45;3.63;;;;;;;;;;5030416;28;20034;-54
2022/06/22 03:51:48;;;;;;;5.40;4.10;;;;;;;;;;5032444;28;20021;-52
2022/06/22 03:54:17;;;;;;;4.50;3.50;;;;;;;;;;5012945;28;20099;-53
2022/06/22 03:56:46;;;;;;;5.97;3.90;;;;;;;;;;5031061;28;20470;-50
2022/06/22 03:59:12;;;;;;;3.47;3.17;;;;;;;;;;5030967;28;20060;-55
2022/06/22 04:01:38;;;;;;;4.28;3.67;;;;;;;;;;5032013;28;20030;-54
2022/06/22 04:04:05;;;;;;;5.13;3.42;;;;;;;;;;5031078;28;20041;-54
2022/06/22 04:06:39;;;;;;;5.35;3.70;;;;;;;;;;5032067;28;20032;-53
2022/06/22 04:09:11;;;;;;;5.95;3.47;;;;;;;;;;5031286;28;20061;-55
2022/06/22 04:11:56;;;;;;;5.10;3.70;;;;;;;;;;5032025;28;20017;-53
2022/06/22 04:14:25;;;;;;;5.50;3.85;;;;;;;;;;5030509;28;20022;-55
2022/06/22 04:16:56;;;;;;;7.88;3.90;;;;;;;;;;5031236;28;20112;-53
2022/06/22 04:19:33;;;;;;;4.47;3.60;;;;;;;;;;5020139;28;20499;-58
2022/06/22 04:22:02;;;;;;;7.15;4.00;;;;;;;;;;5030587;28;20115;-51
2022/06/22 04:24:40;;;;;;;5.93;3.72;;;;;;;;;;5031806;28;20374;-52
2022/06/22 04:27:15;;;;;;;4.45;3.30;;;;;;;;;;5030169;28;20112;-52
2022/06/22 04:29:47;;;;;;;4.35;3.35;;;;;;;;;;5032629;28;20057;-56
2022/06/22 04:32:13;;;;;;;4.43;3.60;;;;;;;;;;5024091;28;20048;-55
2022/06/22 04:34:45;;;;;;;4.85;3.83;;;;;;;;;;5031248;28;20474;-52
2022/06/22 04:37:19;;;;;;;7.10;4.05;;;;;;;;;;5030689;28;20029;-53
2022/06/22 04:39:48;;;;;;;6.90;3.88;;;;;;;;;;5031331;28;20022;-54
2022/06/22 04:42:14;;;;;;;7.30;3.78;;;;;;;;;;5031302;28;20029;-54
2022/06/22 04:44:45;;;;;;;6.88;3.75;;;;;;;;;;5031458;28;20032;-53
2022/06/22 04:47:26;;;;;;;8.60;3.50;;;;;;;;;;5028564;28;20630;-54
2022/06/22 04:49:54;;;;;;;5.72;3.67;;;;;;;;;;5029943;28;20037;-57
2022/06/22 04:52:27;;;;;;;4.88;3.60;;;;;;;;;;5031282;28;20114;-54
2022/06/22 04:54:55;;;;;;;6.70;3.60;;;;;;;;;;5031039;28;20021;-58
2022/06/22 04:57:22;;;;;;;5.85;3.97;;;;;;;;;;5031863;28;20052;-53
2022/06/22 04:59:49;;;;;;;4.72;3.78;;;;;;;;;;5031099;28;20045;-61
2022/06/22 05:02:16;;;;;;;7.15;4.55;;;;;;;;;;5030932;28;20025;-53
2022/06/22 05:04:43;;;;;;;9.05;3.75;;;;;;;;;;5031071;28;20029;-52
2022/06/22 05:07:28;;;;;;;7.05;3.78;;;;;;;;;;5030707;28;20638;-52
2022/06/22 05:10:01;;;;;;;8.40;3.83;;;;;;;;;;5028669;28;20029;-52
2022/06/22 05:12:28;;;;;;;5.53;4.65;;;;;;;;;;5031308;28;20018;-52
2022/06/22 05:14:55;;;;;;;9.45;4.07;;;;;;;;;;5030431;28;20493;-56
2022/06/22 05:17:25;;;;;;;5.38;3.28;;;;;;;;;;5031212;28;20056;-54
2022/06/22 05:20:10;;;;;;;4.72;3.95;;;;;;;;;;5031036;28;20043;-60
2022/06/22 05:22:36;;;;;;;9.27;3.65;;;;;;;;;;5031098;28;20033;-52
2022/06/22 05:25:04;;;;;;;7.72;3.63;;;;;;;;;;5029214;28;20030;-52
2022/06/22 05:27:35;;;;;;;5.93;4.18;;;;;;;;;;5030688;28;20038;-52
2022/06/22 05:30:05;;;;;;;10.82;4.25;;;;;;;;;;5031719;28;20052;-53
2022/06/22 05:32:34;;;;;;;6.97;5.30;;;;;;;;;;5031136;28;20033;-56
2022/06/22 05:35:05;;;;;;;5.78;4.38;;;;;;;;;;5034203;28;20426;-54
2022/06/22 05:37:32;;;;;;;7.60;4.25;;;;;;;;;;5034554;28;20433;-54
2022/06/22 05:39:59;;;;;;;9.45;4.22;;;;;;;;;;5034111;28;20082;-53
2022/06/22 05:42:27;;;;;;;8.40;4.57;;;;;;;;;;5034608;28;20021;-53
2022/06/22 05:44:54;;;;;;;6.30;4.68;;;;;;;;;;5032490;28;20367;-62
2022/06/22 05:47:27;;;;;;;7.00;4.60;;;;;;;;;;5030936;28;20037;-54
2022/06/22 05:50:00;;;;;;;7.90;4.32;;;;;;;;;;5033786;28;20033;-54
2022/06/22 05:52:32;;;;;;;6.05;4.18;;;;;;;;;;5033425;28;20040;-55
2022/06/22 05:55:02;;;;;;;10.07;5.38;;;;;;;;;;5033753;28;20026;-54
2022/06/22 05:57:39;;;;;;;6.75;4.80;;;;;;;;;;5034154;28;20486;-55
2022/06/22 06:00:10;;;;;;;8.57;5.55;;;;;;;;;;5033695;28;20394;-56
2022/06/22 06:02:42;;;;;;;7.72;4.97;;;;;;;;;;5032709;28;20029;-55
2022/06/22 06:05:15;;;;;;;5.47;4.47;;;;;;;;;;5033340;28;20030;-56
2022/06/22 06:07:52;;;;;;;8.93;4.63;;;;;;;;;;5031858;28;20485;-55
2022/06/22 06:10:21;;;;;;;6.93;4.15;;;;;;;;;;5033381;28;20033;-56
2022/06/22 06:13:00;;;;;;;4.82;4.30;;;;;;;;;;5035648;28;20025;-57
2022/06/22 06:15:26;;;;;;;8.18;4.57;;;;;;;;;;5031817;28;20021;-54
2022/06/22 06:17:55;;;;;;;6.45;4.43;;;;;;;;;;5037130;28;20029;-59
2022/06/22 06:20:23;;;;;;;5.90;4.40;;;;;;;;;;5032615;28;20024;-55
2022/06/22 06:22:50;;;;;;;6.93;4.20;;;;;;;;;;5029770;28;20220;-56
2022/06/22 06:28:12;;;;;;;6.30;4.38;;;;;;;;;;5032325;28;20044;-59
2022/06/22 06:30:47;;;;;;;5.03;4.15;;;;;;;;;;5034577;28;20095;-56
2022/06/22 06:33:16;;;;;;;7.18;4.05;;;;;;;;;;5032535;28;20354;-54
2022/06/22 06:35:42;;;;;;;6.00;4.40;;;;;;;;;;5031719;28;20025;-55
2022/06/22 06:38:18;;;;;;;5.00;4.22;;;;;;;;;;5031023;28;20378;-53
2022/06/22 06:40:52;;;;;;;7.00;5.20;;;;;;;;;;5033287;28;20025;-54
2022/06/22 06:43:31;;;;;;;7.28;4.55;;;;;;;;;;5032553;28;20028;-57
2022/06/22 06:45:59;;;;;;;7.05;4.22;;;;;;;;;;5031699;28;20387;-54
2022/06/22 06:48:26;;;;;;;9.98;4.05;;;;;;;;;;5032067;28;20060;-55
2022/06/22 06:50:54;;;;;;;6.18;4.18;;;;;;;;;;5031647;28;20029;-56
2022/06/22 06:53:23;;;;;;;7.03;4.13;;;;;;;;;;5026807;28;20053;-53
2022/06/22 06:55:56;;;;;;;6.05;4.35;;;;;;;;;;5033520;28;20068;-55
2022/06/22 06:58:41;;;;;;;7.93;4.75;;;;;;;;;;5033372;28;20132;-56
2022/06/22 07:01:13;;;;;;;9.98;5.18;;;;;;;;;;5032859;28;20108;-56
2022/06/22 07:03:40;;;;;;;8.55;4.75;;;;;;;;;;5033639;28;20055;-54
2022/06/22 07:06:06;;;;;;;6.00;4.53;;;;;;;;;;5032948;28;20026;-56
2022/06/22 07:08:37;;;;;;;9.70;4.53;;;;;;;;;;5032819;28;20029;-54
2022/06/22 07:11:06;;;;;;;6.50;4.33;;;;;;;;;;5032849;28;20119;-55
2022/06/22 07:13:39;;;;;;;7.10;4.22;;;;;;;;;;5032792;28;20030;-54
2022/06/22 07:16:12;;;;;;;5.47;3.72;;;;;;;;;;5032963;28;20029;-54
2022/06/22 07:18:41;;;;;;;5.63;4.20;;;;;;;;;;5033333;28;20034;-55
2022/06/22 07:21:32;;;;;;;10.45;3.70;;;;;;;;;;5038290;28;20129;-56
2022/06/22 07:24:13;;;;;;;7.45;4.03;;;;;;;;;;5031227;28;20056;-58
2022/06/22 07:26:47;;;;;;;4.47;3.73;;;;;;;;;;5032194;28;20060;-57
2022/06/22 07:29:22;;;;;;;6.38;4.32;;;;;;;;;;5026954;28;20479;-55
2022/06/22 07:31:53;;;;;;;4.43;3.65;;;;;;;;;;5034412;28;20464;-54
2022/06/22 07:34:22;;;;;;;5.68;4.10;;;;;;;;;;5031376;28;20485;-53
2022/06/22 07:36:51;;;;;;;5.97;4.05;;;;;;;;;;5033037;28;20064;-55
2022/06/22 07:39:20;;;;;;;6.18;3.30;;;;;;;;;;5032191;28;20041;-55
2022/06/22 07:41:46;;;;;;;11.02;4.53;;;;;;;;;;5032878;28;20459;-54
2022/06/22 07:44:12;;;;;;;4.95;3.65;;;;;;;;;;5032301;28;20032;-55
2022/06/22 07:46:47;;;;;;;5.00;3.42;;;;;;;;;;5031661;28;21773;-55
2022/06/22 07:49:17;;;;;;;7.18;3.78;;;;;;;;;;5032477;28;20493;-55
2022/06/22 07:52:09;;;;;;;9.63;5.00;;;;;;;;;;5037011;28;20032;-53
2022/06/22 07:54:43;;;;;;;7.85;3.78;;;;;;;;;;5029000;28;20685;-57
2022/06/22 07:57:22;;;;;;;4.72;3.63;;;;;;;;;;5030781;28;20601;-56
2022/06/22 07:59:54;;;;;;;6.25;3.95;;;;;;;;;;5030020;28;20029;-56
2022/06/22 08:02:25;;;;;;;4.85;3.50;;;;;;;;;;5031516;28;20409;-58
2022/06/22 08:04:55;;;;;;;5.93;3.45;;;;;;;;;;5030862;28;20373;-58
2022/06/22 08:07:24;;;;;;;4.43;3.60;;;;;;;;;;5035346;28;20038;-59
2022/06/22 08:10:03;;;;;;;6.00;3.50;;;;;;;;;;5024588;28;20493;-55
2022/06/22 08:12:29;;;;;;;8.73;3.33;;;;;;;;;;5032315;28;20033;-58
2022/06/22 08:14:56;;;;;;;5.72;3.33;;;;;;;;;;5031310;28;20040;-56
2022/06/22 08:17:25;;;;;;;7.82;3.67;;;;;;;;;;5031297;28;20049;-56
2022/06/22 08:19:51;;;;;;;7.25;3.88;;;;;;;;;;5032027;28;20025;-56
2022/06/22 08:22:17;;;;;;;4.35;3.55;;;;;;;;;;5031376;28;20037;-58
2022/06/22 08:24:46;;;;;;;6.20;3.63;;;;;;;;;;5029958;28;20386;-56
2022/06/22 08:27:17;;;;;;;7.88;3.40;;;;;;;;;;5031320;28;20374;-55
2022/06/22 08:29:43;;;;;;;4.72;3.50;;;;;;;;;;5028757;28;20107;-58
2022/06/22 08:32:14;;;;;;;5.10;3.28;;;;;;;;;;5026635;28;20030;-56
2022/06/22 08:34:50;;;;;;;4.60;3.40;;;;;;;;;;5031532;28;20056;-56
2022/06/22 08:37:24;;;;;;;6.03;3.00;;;;;;;;;;5031314;28;20478;-56
2022/06/22 08:40:16;;;;;;;5.50;3.00;;;;;;;;;;5030732;28;20032;-58
2022/06/22 08:42:52;;;;;;;4.38;2.97;;;;;;;;;;5031920;28;20351;-55
2022/06/22 08:45:33;;;;;;;3.83;3.30;;;;;;;;;;5023580;28;20368;-56
2022/06/22 08:48:11;;;;;;;5.05;3.10;;;;;;;;;;5025879;28;20037;-62
2022/06/22 08:50:47;;;;;;;7.13;3.17;;;;;;;;;;5031565;28;20029;-55
2022/06/22 08:53:13;;;;;;;4.20;3.25;;;;;;;;;;5030181;28;20024;-58
2022/06/22 08:55:53;;;;;;;6.55;3.95;;;;;;;;;;5030960;28;20045;-57
2022/06/22 08:58:38;;;;;;;7.68;5.00;;;;;;;;;;5031020;28;20025;-56
2022/06/22 09:01:30;;;;;;;4.78;3.25;;;;;;;;;;5027832;28;20022;-57
2022/06/22 09:04:05;;;;;;;4.28;2.80;;;;;;;;;;5025814;28;20088;-58
2022/06/22 09:06:44;;;;;;;5.32;3.00;;;;;;;;;;5027673;28;20028;-55
2022/06/22 09:09:13;;;;;;;6.18;3.45;;;;;;;;;;5032362;28;20430;-57
2022/06/22 09:11:42;;;;;;;5.72;3.30;;;;;;;;;;5032973;28;20032;-55
2022/06/22 09:14:14;;;;;;;5.03;3.40;;;;;;;;;;5028770;28;20021;-58
2022/06/22 09:16:49;;;;;;;6.40;3.30;;;;;;;;;;5031336;28;20061;-55
2022/06/22 09:19:15;;;;;;;5.25;3.40;;;;;;;;;;5026384;28;20528;-57
2022/06/22 09:21:56;;;;;;;6.97;3.50;;;;;;;;;;5034547;28;20108;-58
2022/06/22 09:24:27;;;;;;;5.20;3.25;;;;;;;;;;5027707;28;20022;-54
2022/06/22 09:27:02;;;;;;;3.95;3.17;;;;;;;;;;5034043;28;20021;-55
2022/06/22 09:29:47;;;;;;;7.93;3.50;;;;;;;;;;5033014;28;20084;-55
2022/06/22 09:32:13;;;;;;;5.32;3.35;;;;;;;;;;5030532;28;20378;-57
2022/06/22 09:34:51;;;;;;;3.80;3.40;;;;;;;;;;5031858;28;20048;-58
2022/06/22 09:37:26;;;;;;;4.22;2.92;;;;;;;;;;5028939;28;20432;-56
2022/06/22 09:40:06;;;;;;;3.83;3.00;;;;;;;;;;5028458;28;20482;-57
2022/06/22 09:42:32;;;;;;;6.53;3.53;;;;;;;;;;5028488;28;20030;-56
2022/06/22 09:44:58;;;;;;;6.35;3.47;;;;;;;;;;5028992;28;20025;-57
2022/06/22 09:47:47;;;;;;;5.30;3.78;;;;;;;;;;5033026;28;20029;-57
2022/06/22 09:50:24;;;;;;;5.75;3.20;;;;;;;;;;5032858;28;20078;-58
2022/06/22 09:53:06;;;;;;;8.82;3.42;;;;;;;;;;5032945;28;20116;-58
2022/06/22 09:58:37;;;;;;;6.22;3.80;;;;;;;;;;5027905;28;20084;-56
2022/06/22 10:01:09;;;;;;;5.15;3.15;;;;;;;;;;5026349;28;20033;-56
2022/06/22 10:03:42;;;;;;;5.38;3.45;;;;;;;;;;5032671;28;20025;-56
2022/06/22 10:06:11;;;;;;;8.65;3.25;;;;;;;;;;5029391;28;20061;-58
2022/06/22 10:08:46;;;;;;;10.02;3.30;;;;;;;;;;5030885;28;20025;-58
2022/06/22 10:11:12;;;;;;;8.00;3.40;;;;;;;;;;5029150;28;20037;-56
2022/06/22 10:14:01;;;;;;;4.70;3.45;;;;;;;;;;5029642;28;20099;-56
2022/06/22 10:16:34;;;;;;;5.57;3.20;;;;;;;;;;5022912;28;20025;-56
2022/06/22 10:19:18;;;;;;;5.68;3.35;;;;;;;;;;5031449;28;20053;-57
2022/06/22 10:21:47;;;;;;;4.60;3.20;;;;;;;;;;5032154;28;20033;-58
2022/06/22 10:24:16;;;;;;;5.65;3.30;;;;;;;;;;5030359;28;20026;-56
2022/06/22 10:26:42;;;;;;;4.55;3.50;;;;;;;;;;5030726;28;20427;-57
2022/06/22 10:29:16;;;;;;;5.68;3.53;;;;;;;;;;5031811;28;20116;-57
2022/06/22 10:32:00;;;;;;;4.70;3.03;;;;;;;;;;5029662;28;20052;-58
2022/06/22 10:34:32;;;;;;;3.75;3.20;;;;;;;;;;5026987;28;20044;-56
2022/06/22 10:37:04;;;;;;;7.43;2.90;;;;;;;;;;5025668;28;20144;-57
2022/06/22 10:39:44;;;;;;;4.78;3.53;;;;;;;;;;5027079;28;20115;-56
2022/06/22 10:45:10;;;;;;;8.57;3.83;;;;;;;;;;5025396;28;20497;-61
2022/06/22 10:47:36;;;;;;;6.10;3.45;;;;;;;;;;5030853;28;20038;-58
2022/06/22 10:50:02;;;;;;;3.67;3.30;;;;;;;;;;5026637;28;20041;-59
2022/06/22 10:52:31;;;;;;;7.78;3.50;;;;;;;;;;5028003;28;20022;-56
2022/06/22 10:55:15;;;;;;;4.53;3.25;;;;;;;;;;5032590;28;20026;-56
2022/06/22 10:57:42;;;;;;;5.95;3.40;;;;;;;;;;5032873;28;20033;-58
2022/06/22 11:00:14;;;;;;;6.13;3.70;;;;;;;;;;5023526;28;20470;-56
2022/06/22 11:02:59;;;;;;;5.05;3.70;;;;;;;;;;5031535;28;20461;-55
2022/06/22 11:05:57;;;;;;;4.63;3.63;;;;;;;;;;5025742;28;20048;-56
2022/06/22 11:08:38;;;;;;;5.40;3.40;;;;;;;;;;5003317;28;20046;-55
2022/06/22 11:11:07;;;;;;;7.75;3.38;;;;;;;;;;5031791;28;20385;-63
2022/06/22 11:13:42;;;;;;;6.50;4.25;;;;;;;;;;5032093;28;20028;-54
2022/06/22 11:16:20;;;;;;;5.68;3.05;;;;;;;;;;5030204;28;20022;-56
2022/06/22 11:19:00;;;;;;;6.15;3.22;;;;;;;;;;5032424;28;20501;-58
2022/06/22 11:21:48;;;;;;;5.38;3.20;;;;;;;;;;5025878;28;20352;-56
2022/06/22 11:24:32;;;;;;;8.02;3.42;;;;;;;;;;5026920;28;20056;-56
2022/06/22 11:32:52;;;;;;;5.82;3.25;;;;;;;;;;5021993;28;20121;-60
2022/06/22 11:35:21;;;;;;;4.95;3.20;;;;;;;;;;5018144;28;20104;-56
2022/06/22 11:37:53;;;;;;;4.72;2.80;;;;;;;;;;5031133;28;20025;-56
2022/06/22 11:40:28;;;;;;;6.78;2.80;;;;;;;;;;5026203;28;20040;-55
2022/06/22 11:43:13;;;;;;;4.60;3.28;;;;;;;;;;5024722;28;20037;-56
2022/06/22 11:45:54;;;;;;;5.07;3.50;;;;;;;;;;5023180;28;20041;-56
2022/06/22 11:48:35;;;;;;;4.20;3.15;;;;;;;;;;5030540;28;20482;-56
2022/06/22 11:51:07;;;;;;;6.07;3.08;;;;;;;;;;5030627;28;20120;-57
2022/06/22 11:53:59;;;;;;;3.97;3.10;;;;;;;;;;5030427;28;20033;-56
2022/06/22 11:56:25;;;;;;;2.90;2.67;;;;;;;;;;5026884;28;20677;-54
2022/06/22 11:58:59;;;;;;;4.75;3.20;;;;;;;;;;5022815;28;20030;-54
2022/06/22 12:01:34;;;;;;;3.60;2.80;;;;;;;;;;5030314;28;20562;-55
2022/06/22 12:04:19;;;;;;;5.03;3.13;;;;;;;;;;5028359;28;20038;-55
2022/06/22 12:07:03;;;;;;;3.45;2.70;;;;;;;;;;5028322;28;20029;-59
2022/06/22 12:09:44;;;;;;;5.38;3.13;;;;;;;;;;5026362;28;20482;-55
2022/06/22 12:12:36;;;;;;;4.60;3.58;;;;;;;;;;5026710;28;20108;-56
2022/06/22 12:15:16;;;;;;;3.95;2.97;;;;;;;;;;5030254;28;20049;-60
2022/06/22 12:17:54;;;;;;;3.55;2.80;;;;;;;;;;5027331;28;20041;-57
2022/06/22 12:20:39;;;;;;;6.70;2.85;;;;;;;;;;5020651;28;20026;-60
2022/06/22 12:23:05;;;;;;;3.42;2.60;;;;;;;;;;5025087;28;20116;-63
2022/06/22 12:25:31;;;;;;;5.07;3.05;;;;;;;;;;5025028;28;20117;-55
2022/06/22 12:28:03;;;;;;;4.53;2.92;;;;;;;;;;5018891;28;20079;-59
2022/06/22 12:30:48;;;;;;;3.78;3.28;;;;;;;;;;5021849;28;20402;-57
2022/06/22 12:33:33;;;;;;;3.72;2.70;;;;;;;;;;5023556;28;20026;-56
2022/06/22 12:36:08;;;;;;;3.58;2.70;;;;;;;;;;5021772;28;20087;-54
2022/06/22 12:38:40;;;;;;;3.30;3.00;;;;;;;;;;5029478;28;20029;-57
2022/06/22 12:41:24;;;;;;;3.50;2.75;;;;;;;;;;5029090;28;20069;-63
2022/06/22 12:43:53;;;;;;;3.88;3.00;;;;;;;;;;5027802;28;20489;-57
2022/06/22 12:46:25;;;;;;;3.33;3.03;;;;;;;;;;5026419;28;20071;-56
2022/06/22 12:48:56;;;;;;;3.42;2.85;;;;;;;;;;5024813;28;20378;-60
2022/06/22 12:51:32;;;;;;;3.83;2.45;;;;;;;;;;5025709;28;20418;-57
2022/06/22 12:54:19;;;;;;;3.42;3.03;;;;;;;;;;5028699;28;20104;-57
2022/06/22 12:56:57;;;;;;;4.38;2.70;;;;;;;;;;5020389;28;20466;-59
2022/06/22 12:59:31;;;;;;;6.85;3.20;;;;;;;;;;5027580;28;20029;-58
2022/06/22 13:01:57;;;;;;;5.45;3.38;;;;;;;;;;5028504;28;20493;-58
2022/06/22 13:04:30;;;;;;;4.05;2.95;;;;;;;;;;5021159;28;20403;-57
2022/06/22 13:06:58;;;;;;;6.30;2.63;;;;;;;;;;5027917;28;20030;-57
2022/06/22 13:09:25;;;;;;;6.35;2.35;;;;;;;;;;5022797;28;20601;-57
2022/06/22 13:11:52;;;;;;;5.40;2.83;;;;;;;;;;5022872;28;20091;-57
2022/06/22 13:14:23;;;;;;;5.93;2.63;;;;;;;;;;5023276;28;20053;-57
2022/06/22 13:17:07;;;;;;;4.00;3.38;;;;;;;;;;5022284;28;20478;-61
2022/06/22 13:19:42;;;;;;;4.43;2.83;;;;;;;;;;5027309;28;20478;-56
2022/06/22 13:22:26;;;;;;;3.85;2.25;;;;;;;;;;5030839;28;20021;-63
2022/06/22 13:25:03;;;;;;;6.32;2.75;;;;;;;;;;5024998;28;20021;-58
2022/06/22 13:27:47;;;;;;;5.72;2.97;;;;;;;;;;5024482;28;20117;-58
2022/06/22 13:30:18;;;;;;;5.82;3.13;;;;;;;;;;5022407;28;20049;-56
2022/06/22 13:33:03;;;;;;;5.60;2.45;;;;;;;;;;5022371;28;20075;-57
2022/06/22 13:35:34;;;;;;;5.68;2.85;;;;;;;;;;5025887;28;20036;-58
2022/06/22 13:38:01;;;;;;;;;;;;;;;;;;5023814;28;20033;-58
2022/06/22 13:40:37;;;;;;;3.78;2.03;;;;;;;;;;5022259;28;19916;-57
2022/06/22 13:43:03;;;;;;;4.45;2.83;;;;;;;;;;5024115;28;20082;-58
2022/06/22 13:45:52;;;;;;;4.45;2.92;;;;;;;;;;5023125;28;20022;-55
2022/06/22 13:48:22;;;;;;;6.53;2.85;;;;;;;;;;5021729;28;20038;-56
2022/06/22 13:51:13;;;;;;;4.25;2.08;;;;;;;;;;5025898;28;20037;-58
2022/06/22 13:54:00;;;;;;;6.13;3.22;;;;;;;;;;5030949;28;20076;-56
2022/06/22 13:56:26;;;;;;;5.05;2.90;;;;;;;;;;5029248;28;20033;-58
2022/06/22 13:58:54;;;;;;;6.32;2.72;;;;;;;;;;5026845;28;20104;-59
2022/06/22 14:01:23;;;;;;;6.50;2.90;;;;;;;;;;5026500;28;20545;-56
2022/06/22 14:03:52;;;;;;;9.98;4.00;;;;;;;;;;5026573;28;20049;-57
2022/06/22 14:06:21;;;;;;;4.45;2.53;;;;;;;;;;5022955;28;20474;-57
2022/06/22 14:08:59;;;;;;;5.97;2.90;;;;;;;;;;5024400;28;20544;-59
2022/06/22 14:11:31;;;;;;;5.18;3.00;;;;;;;;;;5019484;28;20033;-58
2022/06/22 14:14:06;;;;;;;5.07;3.03;;;;;;;;;;5032568;28;20553;-57
2022/06/22 14:16:47;;;;;;;4.90;2.72;;;;;;;;;;5031990;28;20033;-58
2022/06/22 14:19:13;;;;;;;8.20;2.50;;;;;;;;;;5030264;28;20379;-58
2022/06/22 14:21:42;;;;;;;4.47;2.75;;;;;;;;;;5032280;28;20064;-57
2022/06/22 14:24:18;;;;;;;5.63;2.42;;;;;;;;;;5027988;28;20022;-62
2022/06/22 14:26:47;;;;;;;3.30;2.30;;;;;;;;;;5033473;28;20041;-56
2022/06/22 14:29:18;;;;;;;7.03;3.05;;;;;;;;;;5027921;28;20087;-57
2022/06/22 14:31:50;;;;;;;7.30;3.30;;;;;;;;;;5031902;28;20030;-59
2022/06/22 14:34:28;;;;;;;6.45;2.85;;;;;;;;;;5024572;28;20076;-58
2022/06/22 14:36:57;;;;;;;4.20;2.70;;;;;;;;;;5020359;28;20030;-58
2022/06/22 14:39:30;;;;;;;6.97;2.67;;;;;;;;;;5026511;28;20096;-58
2022/06/22 14:42:02;;;;;;;6.38;2.70;;;;;;;;;;5024715;28;20083;-59
2022/06/22 14:44:47;;;;;;;5.03;2.10;;;;;;;;;;5029906;28;20622;-59
2022/06/22 14:47:16;;;;;;;6.63;2.45;;;;;;;;;;5031419;28;20028;-58
2022/06/22 14:49:47;;;;;;;5.25;2.92;;;;;;;;;;5029283;28;20104;-58
2022/06/22 14:52:18;;;;;;;4.40;2.17;;;;;;;;;;5025213;28;20022;-58
2022/06/22 14:54:44;;;;;;;9.87;3.20;;;;;;;;;;5006456;28;20038;-57
2022/06/22 14:57:10;;;;;;;3.60;2.50;;;;;;;;;;5032221;28;20032;-61
2022/06/22 14:59:39;;;;;;;6.03;2.55;;;;;;;;;;5032406;28;20133;-58
2022/06/22 15:02:12;;;;;;;3.70;2.50;;;;;;;;;;5030493;28;20105;-58
2022/06/22 15:04:38;;;;;;;5.88;2.90;;;;;;;;;;5031729;28;20100;-58
2022/06/22 15:07:12;;;;;;;4.20;3.03;;;;;;;;;;5028934;28;20029;-58
2022/06/22 15:09:46;;;;;;;5.20;2.85;;;;;;;;;;5028825;28;20076;-58
2022/06/22 15:15:12;;;;;;;4.00;2.53;;;;;;;;;;5022084;28;20033;-58
2022/06/22 15:17:42;;;;;;;3.70;2.50;;;;;;;;;;5026817;28;20108;-58
2022/06/22 15:20:18;;;;;;;8.15;3.08;;;;;;;;;;5028274;28;20111;-62
2022/06/22 15:23:02;;;;;;;5.80;3.25;;;;;;;;;;5023942;28;20026;-58
2022/06/22 15:25:34;;;;;;;4.95;3.15;;;;;;;;;;5023672;28;20105;-59
2022/06/22 15:28:13;;;;;;;7.05;2.95;;;;;;;;;;5023894;28;20120;-56
2022/06/22 15:30:43;;;;;;;6.05;2.65;;;;;;;;;;5031100;28;20422;-58
2022/06/22 15:33:09;;;;;;;5.35;2.78;;;;;;;;;;5030026;28;20063;-62
2022/06/22 15:35:35;;;;;;;6.80;2.58;;;;;;;;;;5030348;28;20044;-58
2022/06/22 15:38:03;;;;;;;6.85;3.28;;;;;;;;;;5028841;28;20482;-58
2022/06/22 15:40:48;;;;;;;4.43;2.50;;;;;;;;;;5020221;28;20116;-57
2022/06/22 15:43:19;;;;;;;4.80;2.80;;;;;;;;;;5027897;28;20034;-56